If you wish to contribute or participate in the discussions about articles you are invited to join SKYbrary as a registered user

 Actions

Bethel Airport

From SKYbrary Wiki

PABE
Airport
ICAO: PABE
Summary
Name Bethel Airport
Region North America
Territory Alaska US.gif
Location Bethel
Serving
Coordinates 60° 46' 47.00" N, 161° 50' 16.00" W
Runways
Designator Length Width Surface ROPS
01L/19R 1951 m6,400.919 ft
46 m150.919 ft
ASPH-F yes/yes
01R/19L 1219 m3,999.344 ft
23 m75.459 ft
ASPH-G yes/yes
12/30 567 m1,860.236 ft
23 m75.459 ft
GRVL-G yes/yes


METAR
Observation PABE 202053Z VRB03KT 10SM BKN026 OVC055 M02/M07 A2976 RMK AO2 SLP081 T10221067 51002
Station Bethel, Bethel Airport
Date/Time 20 April 2019 20:53:00
Wind direction °
Wind speed 03 kts
Lowest cloud amount broken clouds
Temperature
Dew point
Humidity 71%
QNH hPa
Weather condition n/a

BS
Tag(s) Bird Strike
BS
Tag(s) Non Avian Wildlife Hazards to Aircraft
CFIT
Tag(s) Altimeter Temperature Error Correction

Bethel Airport

ICAO: PABE IATA: BET

Description

Regional airport serving Bethel, Alaska.

Climatology

Subarctic climate (Köppen climate classification Dfc) - long, usually very cold winters, and short, cool to mild summers.

Maps

Terrain

Loading map...

Airport Layout

Loading map...


Accidents & Serious Incidents at or in vicinity of PABE

None on SKYbrary